Time;durP1;ratioP1;P1;durP2;ratioP2;P2;SDS_P1;SDS_P2;PMS_P1;PMS_P2;Temp;Humidity;BMP_temperature;BMP_pressure;BME280_temperature;BME280_humidity;BME280_pressure;Samples;Min_cycle;Max_cycle;Signal;HPM_P1;HPM_P2
2021/07/12 00:00:36;;;;;;;19.85;7.08;;;;;;;21.34;69.63;99890.11;1767833;81;21189;-78
2021/07/12 00:03:43;;;;;;;20.27;7.08;;;;;;;21.32;69.65;99893.71;1768362;81;21224;-78
2021/07/12 00:06:48;;;;;;;22.15;7.95;;;;;;;21.29;69.69;99890.02;1768238;81;21231;-78
2021/07/12 00:09:53;;;;;;;22.80;7.33;;;;;;;21.26;69.87;99884.95;1769162;81;21295;-78
2021/07/12 00:13:00;;;;;;;17.07;6.58;;;;;;;21.24;69.98;99887.16;1767921;81;21330;-77
2021/07/12 00:16:06;;;;;;;17.80;7.05;;;;;;;21.16;70.15;99889.27;1767846;81;21228;-77
2021/07/12 00:19:13;;;;;;;23.05;8.48;;;;;;;21.10;70.39;99890.30;1767719;81;21185;-80
2021/07/12 00:22:19;;;;;;;24.57;8.45;;;;;;;21.04;70.66;99888.55;1769286;81;21311;-79
2021/07/12 00:25:27;;;;;;;29.67;9.18;;;;;;;21.00;71.05;99876.81;1767860;81;21755;-80
2021/07/12 00:28:34;;;;;;;27.67;8.98;;;;;;;20.93;71.31;99881.14;1767940;81;22514;-78
2021/07/12 00:31:40;;;;;;;24.37;8.85;;;;;;;20.86;71.61;99872.98;1767776;81;21192;-78
2021/07/12 00:34:45;;;;;;;21.42;8.28;;;;;;;20.81;72.12;99881.80;1769221;81;21386;-78
2021/07/12 00:37:51;;;;;;;23.18;8.30;;;;;;;20.73;72.51;99867.77;1767935;81;21327;-78
2021/07/12 00:40:57;;;;;;;27.87;7.60;;;;;;;20.66;72.88;99872.13;1767779;81;21184;-78
2021/07/12 00:44:03;;;;;;;31.85;8.53;;;;;;;20.62;73.14;99870.10;1770055;81;21343;-78
2021/07/12 00:47:10;;;;;;;18.67;8.25;;;;;;;20.57;73.58;99869.47;1768556;81;21260;-78
2021/07/12 00:50:17;;;;;;;18.87;8.58;;;;;;;20.51;73.93;99869.07;1769306;81;21292;-78
2021/07/12 00:53:25;;;;;;;23.55;8.68;;;;;;;20.46;74.25;99859.23;1769403;81;21846;-78
2021/07/12 00:56:31;;;;;;;23.62;9.53;;;;;;;20.42;74.45;99867.80;1769025;81;21629;-78
2021/07/12 00:59:36;;;;;;;31.30;9.50;;;;;;;20.39;74.56;99869.69;1768035;81;21220;-78
2021/07/12 01:02:42;;;;;;;22.37;8.28;;;;;;;20.36;74.69;99868.78;1771257;81;21303;-79
2021/07/12 01:05:49;;;;;;;18.57;8.80;;;;;;;20.34;74.82;99865.43;1770241;81;21189;-79
2021/07/12 01:08:56;;;;;;;23.25;9.18;;;;;;;20.32;74.86;99870.38;1769952;81;21192;-79
2021/07/12 01:12:21;;;;;;;26.87;8.40;;;;;;;20.29;74.94;99863.41;1770524;81;21338;-79
2021/07/12 01:15:29;;;;;;;19.82;8.93;;;;;;;20.29;75.09;99868.96;1771168;81;21331;-79
2021/07/12 01:18:51;;;;;;;29.85;9.28;;;;;;;20.27;75.21;99870.29;1769731;81;21209;-79
2021/07/12 01:22:16;;;;;;;19.60;8.40;;;;;;;20.24;75.30;99865.26;1771219;81;21303;-79
2021/07/12 01:25:35;;;;;;;24.18;8.00;;;;;;;20.23;75.34;99867.20;1769523;81;21188;-79
2021/07/12 01:29:12;;;;;;;23.83;8.70;;;;;;;20.25;75.36;99867.77;1769666;81;21307;-79
2021/07/12 01:32:50;;;;;;;21.40;8.95;;;;;;;20.27;75.34;99862.80;1772129;81;21676;-79
2021/07/12 01:36:23;;;;;;;23.87;9.50;;;;;;;20.27;75.40;99873.91;1741470;81;21752;-78
2021/07/12 01:39:30;;;;;;;23.42;9.38;;;;;;;20.23;75.58;99874.14;1771057;81;21347;-78
2021/07/12 01:42:39;;;;;;;22.27;8.73;;;;;;;20.16;75.82;99877.05;1772211;81;21680;-78
2021/07/12 01:45:58;;;;;;;20.75;9.83;;;;;;;20.10;76.08;99871.12;1772265;81;21259;-78
2021/07/12 01:49:12;;;;;;;29.47;10.47;;;;;;;20.08;76.18;99867.73;1772367;81;21291;-78
2021/07/12 01:52:28;;;;;;;21.73;11.70;;;;;;;20.07;76.20;99879.09;1772166;81;21284;-78
2021/07/12 01:55:37;;;;;;;24.85;10.55;;;;;;;20.05;76.33;99877.13;1772106;81;21315;-78
2021/07/12 01:59:04;;;;;;;28.60;10.78;;;;;;;20.02;76.54;99879.84;1771875;81;21287;-78
2021/07/12 02:02:11;;;;;;;25.92;10.55;;;;;;;20.00;76.69;99875.09;1776560;81;21291;-78
2021/07/12 02:05:24;;;;;;;27.52;10.23;;;;;;;19.98;76.79;99878.65;1775721;81;21212;-78
2021/07/12 02:08:31;;;;;;;32.88;11.50;;;;;;;19.98;76.82;99877.27;1775666;81;21192;-78
2021/07/12 02:11:42;;;;;;;34.00;11.75;;;;;;;20.04;76.78;99881.84;1776319;81;21365;-78
2021/07/12 02:14:47;;;;;;;27.93;10.72;;;;;;;20.13;76.61;99876.16;1777036;81;21315;-78
2021/07/12 02:17:57;;;;;;;33.53;10.40;;;;;;;20.28;76.28;99881.69;1776223;81;21323;-78
2021/07/12 02:21:04;;;;;;;23.55;11.10;;;;;;;20.45;75.68;99876.16;1754576;81;21374;-78
2021/07/12 02:24:13;;;;;;;24.32;9.65;;;;;;;20.64;74.96;99872.91;1773090;80;21232;-78
2021/07/12 02:27:19;;;;;;;23.92;10.45;;;;;;;20.87;74.26;99873.83;1776807;81;21310;-78
2021/07/12 02:30:26;;;;;;;31.90;11.48;;;;;;;21.09;73.54;99873.33;1777733;81;21149;-78
2021/07/12 02:33:33;;;;;;;23.73;10.90;;;;;;;21.39;72.39;99875.72;1773251;80;21165;-78
2021/07/12 02:36:38;;;;;;;22.27;10.30;;;;;;;21.71;71.42;99878.34;1771120;80;21192;-79
2021/07/12 02:39:48;;;;;;;27.85;10.68;;;;;;;21.99;70.27;99880.06;1777828;81;21278;-79
2021/07/12 02:42:59;;;;;;;29.30;9.78;;;;;;;22.29;68.96;99878.16;1776748;81;22408;-78
2021/07/12 02:46:06;;;;;;;25.20;10.30;;;;;;;22.60;67.94;99884.87;1776843;81;21299;-78
2021/07/12 02:49:13;;;;;;;21.00;8.75;;;;;;;22.94;66.69;99889.61;1775890;81;21386;-79
2021/07/12 02:52:26;;;;;;;26.65;9.63;;;;;;;23.24;65.53;99894.55;1776747;81;21299;-79
2021/07/12 02:55:32;;;;;;;21.07;9.55;;;;;;;23.38;64.51;99887.92;1776665;81;21244;-79
2021/07/12 02:58:38;;;;;;;30.92;10.68;;;;;;;23.44;63.97;99885.47;1775171;81;21220;-79
2021/07/12 03:01:43;;;;;;;21.27;10.35;;;;;;;23.53;63.60;99889.42;1771158;80;21201;-79
2021/07/12 03:04:49;;;;;;;22.40;10.58;;;;;;;23.62;63.19;99879.41;1771200;81;21306;-79
2021/07/12 03:08:11;;;;;;;26.00;11.05;;;;;;;23.75;63.04;99882.83;1769840;81;21788;-79
2021/07/12 03:11:19;;;;;;;22.32;10.95;;;;;;;23.94;62.67;99882.05;1771036;81;21386;-79
2021/07/12 03:14:56;;;;;;;21.48;10.20;;;;;;;24.15;61.85;99874.58;1769774;81;21303;-79
2021/07/12 03:18:03;;;;;;;31.37;12.05;;;;;;;24.30;61.62;99885.50;1769590;81;21237;-78
2021/07/12 03:21:12;;;;;;;24.60;11.25;;;;;;;24.44;60.91;99886.66;1770509;81;21350;-78
2021/07/12 03:24:17;;;;;;;25.08;11.95;;;;;;;24.56;60.31;99885.84;1771322;81;21910;-79
2021/07/12 03:27:24;;;;;;;24.60;11.28;;;;;;;24.66;60.24;99887.23;1769897;81;21886;-78
2021/07/12 03:30:31;;;;;;;25.65;11.83;;;;;;;24.82;59.75;99880.23;1771179;81;21347;-78
2021/07/12 03:33:39;;;;;;;21.30;10.58;;;;;;;24.99;59.57;99883.02;1771171;81;21343;-79
2021/07/12 03:36:45;;;;;;;23.50;11.68;;;;;;;25.28;59.16;99883.00;1770512;81;21882;-79
2021/07/12 03:39:51;;;;;;;24.45;12.13;;;;;;;25.61;58.37;99880.92;1770082;81;21323;-78
2021/07/12 03:42:56;;;;;;;25.57;11.63;;;;;;;25.90;57.54;99883.06;1771121;81;21351;-79
2021/07/12 03:46:04;;;;;;;29.77;13.28;;;;;;;26.14;57.42;99882.64;1771791;81;21299;-79
2021/07/12 03:49:19;;;;;;;23.75;12.47;;;;;;;26.37;56.59;99876.05;1769758;81;21193;-79
2021/07/12 03:52:25;;;;;;;22.02;12.53;;;;;;;26.45;56.02;99879.67;1769993;81;21898;-78
2021/07/12 03:55:31;;;;;;;28.20;14.13;;;;;;;26.52;56.06;99877.36;1771079;81;21360;-78
2021/07/12 03:58:37;;;;;;;26.05;12.68;;;;;;;26.55;56.02;99872.58;1771243;81;21869;-79
2021/07/12 04:01:43;;;;;;;28.80;13.68;;;;;;;26.56;56.10;99872.84;1770520;80;21224;-78
2021/07/12 04:04:48;;;;;;;28.85;14.50;;;;;;;26.58;56.36;99867.77;1771090;81;21236;-79
2021/07/12 04:07:54;;;;;;;32.08;14.10;;;;;;;26.71;56.35;99874.11;1769599;81;21331;-79
2021/07/12 04:11:00;;;;;;;31.33;14.18;;;;;;;26.85;56.28;99873.44;1771042;81;21299;-79
2021/07/12 04:14:05;;;;;;;32.63;14.87;;;;;;;26.95;56.25;99864.34;1771160;81;21311;-78
2021/07/12 04:17:11;;;;;;;22.40;13.55;;;;;;;27.01;56.01;99862.35;1769669;81;21236;-79
2021/07/12 04:20:18;;;;;;;30.35;13.72;;;;;;;26.99;56.27;99866.84;1769770;81;21363;-79
2021/07/12 04:23:25;;;;;;;26.17;14.65;;;;;;;26.98;56.82;99858.72;1769656;81;21310;-79
2021/07/12 04:26:29;;;;;;;29.75;15.15;;;;;;;27.04;56.86;99857.53;1769733;81;21295;-79
2021/07/12 04:29:35;;;;;;;23.98;15.05;;;;;;;27.09;57.08;99853.86;1769751;81;21197;-79
2021/07/12 04:32:41;;;;;;;30.20;14.05;;;;;;;27.18;57.22;99850.11;1771145;81;21295;-78
2021/07/12 04:35:47;;;;;;;29.72;14.20;;;;;;;27.30;57.60;99851.69;1771074;81;21382;-79
2021/07/12 04:38:54;;;;;;;26.45;14.45;;;;;;;27.45;57.68;99859.92;1769627;81;21184;-79
2021/07/12 04:41:58;;;;;;;31.87;14.45;;;;;;;27.60;57.16;99859.73;1771181;81;21346;-79
2021/07/12 04:45:03;;;;;;;29.15;15.18;;;;;;;27.71;56.88;99854.30;1771125;81;21303;-79
2021/07/12 04:48:10;;;;;;;27.58;13.05;;;;;;;27.88;56.83;99852.94;1771081;81;21275;-79
2021/07/12 04:51:16;;;;;;;21.45;13.65;;;;;;;28.08;55.77;99859.67;1769859;81;21716;-79
2021/07/12 04:54:22;;;;;;;16.37;10.98;;;;;;;28.21;54.71;99860.89;1772151;81;21145;-79
2021/07/12 04:57:27;;;;;;;18.25;11.55;;;;;;;28.39;54.21;99853.63;1771244;81;21332;-78
2021/07/12 05:00:33;;;;;;;16.87;10.93;;;;;;;28.52;53.09;99859.89;1770433;81;21369;-79
2021/07/12 05:03:38;;;;;;;21.33;11.85;;;;;;;28.61;52.70;99857.22;1771455;80;21326;-78
2021/07/12 05:06:43;;;;;;;21.70;10.68;;;;;;;28.66;52.92;99852.91;1777891;80;21169;-79
2021/07/12 05:09:50;;;;;;;26.27;9.85;;;;;;;28.75;52.98;99864.55;1777736;80;21204;-79
2021/07/12 05:12:55;;;;;;;22.87;10.72;;;;;;;28.77;51.94;99866.47;1785134;79;21369;-79
2021/07/12 05:16:01;;;;;;;12.73;8.53;;;;;;;28.74;51.58;99875.52;1776215;80;21196;-79
2021/07/12 05:19:07;;;;;;;19.30;9.65;;;;;;;28.77;50.81;99879.14;1777824;80;21295;-79
2021/07/12 05:22:13;;;;;;;12.18;7.53;;;;;;;28.73;50.08;99878.08;1740629;82;21362;-79
2021/07/12 05:25:20;;;;;;;18.87;9.28;;;;;;;28.76;51.17;99876.07;1711796;82;21307;-78
2021/07/12 05:28:25;;;;;;;16.87;8.70;;;;;;;28.75;50.48;99880.03;1748790;81;21300;-79
2021/07/12 05:31:31;;;;;;;23.70;9.38;;;;;;;28.71;49.10;99873.92;1738534;82;21331;-78
2021/07/12 05:34:39;;;;;;;12.28;7.87;;;;;;;28.69;50.00;99873.38;1709274;84;22251;-79
2021/07/12 05:37:44;;;;;;;18.20;9.20;;;;;;;28.74;49.73;99878.34;1740111;82;21218;-79
2021/07/12 05:40:49;;;;;;;20.70;8.70;;;;;;;28.74;49.73;99878.34;1739467;81;21261;-79
2021/07/12 05:43:55;;;;;;;20.60;9.15;;;;;;;28.80;50.18;99875.47;1709525;82;21823;-79
2021/07/12 05:47:00;;;;;;;14.73;8.60;;;;;;;29.05;50.33;99878.42;1711073;82;21911;-79
2021/07/12 05:50:07;;;;;;;14.23;8.53;;;;;;;29.05;50.33;99878.42;1738270;82;21284;-79
2021/07/12 05:53:14;;;;;;;12.07;8.65;;;;;;;29.01;51.03;99888.05;1741444;82;21214;-79
2021/07/12 05:56:19;;;;;;;15.15;9.05;;;;;;;29.01;51.03;99888.05;1721951;82;21870;-80
2021/07/12 05:59:26;;;;;;;15.40;8.85;;;;;;;29.02;50.89;99882.67;1729749;82;21324;-79
2021/07/12 06:02:33;;;;;;;19.45;9.00;;;;;;;29.01;51.60;99877.62;1751753;81;21319;-79
2021/07/12 06:05:39;;;;;;;17.12;8.50;;;;;;;29.04;52.12;99879.00;1742211;81;21989;-79
2021/07/12 06:08:45;;;;;;;16.45;8.50;;;;;;;29.14;51.37;99877.39;1785175;80;21335;-78
2021/07/12 06:11:51;;;;;;;18.10;8.53;;;;;;;29.25;52.05;99872.39;1779008;79;21459;-79
2021/07/12 06:14:56;;;;;;;19.05;9.25;;;;;;;29.56;52.58;99879.71;1775174;79;21284;-79
2021/07/12 06:18:01;;;;;;;21.65;9.40;;;;;;;29.56;52.58;99879.71;1770143;79;21319;-79
2021/07/12 06:21:09;;;;;;;13.95;9.20;;;;;;;29.68;52.31;99881.98;1769393;79;21761;-79
2021/07/12 06:24:14;;;;;;;18.35;9.98;;;;;;;29.75;51.52;99871.97;1769461;81;21189;-79
2021/07/12 06:27:19;;;;;;;14.13;8.05;;;;;;;29.81;50.69;99872.69;1773241;79;21335;-79
2021/07/12 06:30:25;;;;;;;19.23;9.38;;;;;;;29.87;51.29;99879.05;1772615;79;21221;-79
2021/07/12 06:33:30;;;;;;;19.82;9.30;;;;;;;29.95;50.94;99875.49;1768860;81;21149;-79
2021/07/12 06:36:37;;;;;;;14.55;8.83;;;;;;;30.01;50.46;99877.88;1768967;81;21541;-79
2021/07/12 06:39:42;;;;;;;16.95;8.15;;;;;;;30.12;50.92;99882.73;1769158;79;21319;-79
2021/07/12 06:42:48;;;;;;;18.80;10.43;;;;;;;30.24;51.14;99887.25;1784943;79;21921;-79
2021/07/12 06:45:55;;;;;;;13.60;7.70;;;;;;;30.27;50.68;99892.27;1773159;81;21673;-79
2021/07/12 06:49:03;;;;;;;13.95;8.05;;;;;;;30.29;50.36;99887.13;1749235;81;21350;-79
2021/07/12 06:52:07;;;;;;;13.90;8.95;;;;;;;30.40;50.44;99895.37;1772660;79;21809;-79
2021/07/12 06:55:14;;;;;;;14.80;9.23;;;;;;;30.52;51.14;99893.64;1718874;82;21304;-79
2021/07/12 06:58:19;;;;;;;18.73;9.53;;;;;;;30.72;49.79;99893.74;1770157;79;21371;-79
2021/07/12 07:01:24;;;;;;;12.58;8.08;;;;;;;30.88;50.73;99899.02;1769809;81;21327;-79
2021/07/12 07:04:30;;;;;;;16.00;8.20;;;;;;;30.96;50.23;99893.98;1789576;79;21153;-79
2021/07/12 07:07:36;;;;;;;16.30;7.55;;;;;;;31.10;49.88;99893.36;1781772;79;21212;-79
2021/07/12 07:10:41;;;;;;;13.43;8.88;;;;;;;31.25;48.48;99894.94;1775869;79;21326;-79
2021/07/12 07:13:46;;;;;;;11.90;8.03;;;;;;;31.39;49.29;99892.05;1774913;79;21343;-79
2021/07/12 07:16:51;;;;;;;17.85;7.97;;;;;;;31.59;48.49;99892.04;1772976;79;21165;-79
2021/07/12 07:19:56;;;;;;;13.43;7.30;;;;;;;31.72;46.56;99886.86;1775533;79;21570;-79
2021/07/12 07:23:02;;;;;;;14.93;8.30;;;;;;;31.77;45.31;99888.95;1772954;79;21173;-79
2021/07/12 07:26:07;;;;;;;13.30;7.03;;;;;;;31.78;45.17;99889.19;1770533;79;21285;-79
2021/07/12 07:29:12;;;;;;;14.45;7.72;;;;;;;31.73;45.32;99882.28;1776956;79;21287;-79
2021/07/12 07:32:18;;;;;;;14.63;7.75;;;;;;;31.74;46.22;99881.11;1773476;79;21232;-79
2021/07/12 07:35:23;;;;;;;12.65;8.58;;;;;;;31.86;45.24;99885.35;1774369;79;21866;-81
2021/07/12 07:38:28;;;;;;;14.60;7.60;;;;;;;31.94;45.25;99883.93;1778779;79;21263;-79
2021/07/12 07:41:33;;;;;;;13.35;6.92;;;;;;;31.96;45.72;99879.37;1774249;79;21918;-79
2021/07/12 07:44:39;;;;;;;16.67;7.47;;;;;;;31.96;44.11;99879.37;1774808;79;22225;-79
2021/07/12 07:47:44;;;;;;;7.75;6.33;;;;;;;31.97;44.92;99874.80;1776295;80;21212;-79
2021/07/12 07:50:50;;;;;;;10.78;7.53;;;;;;;32.02;45.54;99874.64;1775253;79;21752;-79
2021/07/12 07:53:56;;;;;;;13.15;7.92;;;;;;;32.09;44.76;99877.00;1770394;79;21196;-79
2021/07/12 07:59:35;;;;;;;13.30;8.25;;;;;;;32.32;44.22;99866.34;1847519;76;28095;-78
2021/07/12 08:02:39;;;;;;;13.22;7.58;;;;;;;32.29;44.93;99872.69;1821169;77;21268;-78
2021/07/12 08:05:45;;;;;;;15.45;7.30;;;;;;;32.30;45.71;99863.85;1817778;77;21871;-77
2021/07/12 08:08:52;;;;;;;12.00;7.55;;;;;;;32.33;45.31;99865.20;1818462;77;21183;-78
2021/07/12 08:11:58;;;;;;;20.20;8.00;;;;;;;32.28;44.32;99873.27;1809560;77;21303;-78
2021/07/12 08:15:05;;;;;;;11.90;7.50;;;;;;;32.27;44.80;99870.17;1830486;78;21145;-78
2021/07/12 08:18:14;;;;;;;20.35;7.85;;;;;;;32.29;45.11;99868.44;1830792;78;21755;-77
2021/07/12 08:21:19;;;;;;;13.83;8.13;;;;;;;32.38;44.83;99868.48;1819954;78;21241;-77
2021/07/12 08:24:25;;;;;;;13.18;7.30;;;;;;;32.43;45.09;99860.65;1814025;78;21309;-78
2021/07/12 08:27:32;;;;;;;16.27;7.55;;;;;;;32.52;44.35;99868.56;1814875;78;21266;-80
2021/07/12 08:30:38;;;;;;;16.57;8.00;;;;;;;32.58;44.03;99865.55;1811559;78;21784;-80
2021/07/12 08:33:44;;;;;;;11.45;7.15;;;;;;;32.70;44.62;99866.55;1804846;78;21296;-80
2021/07/12 08:36:50;;;;;;;14.80;7.20;;;;;;;32.80;43.08;99861.95;1798295;79;21180;-79
2021/07/12 08:39:56;;;;;;;10.18;7.28;;;;;;;32.88;42.31;99863.67;1807506;78;21295;-79
2021/07/12 08:43:05;;;;;;;12.10;7.10;;;;;;;32.99;43.10;99860.19;1799897;78;21618;-79
2021/07/12 08:46:11;;;;;;;9.45;5.87;;;;;;;33.10;42.31;99863.48;1803779;78;21263;-79
2021/07/12 08:49:16;;;;;;;9.10;5.92;;;;;;;33.10;41.98;99860.66;1813701;78;21165;-79
2021/07/12 08:52:21;;;;;;;19.65;6.97;;;;;;;33.11;40.99;99850.98;1821049;78;21291;-79
2021/07/12 08:55:27;;;;;;;10.05;6.70;;;;;;;33.23;40.72;99846.87;1822044;78;21323;-79
2021/07/12 08:58:34;;;;;;;10.53;6.53;;;;;;;33.38;41.53;99838.38;1796722;78;21819;-79
2021/07/12 09:01:39;;;;;;;11.08;6.83;;;;;;;33.47;40.14;99844.05;1791294;79;21332;-79
2021/07/12 09:04:57;;;;;;;8.40;5.78;;;;;;;33.51;40.34;99844.45;1790445;80;21672;-79
2021/07/12 09:08:02;;;;;;;11.95;6.33;;;;;;;33.59;39.73;99841.30;1791299;80;21150;-80
2021/07/12 09:11:18;;;;;;;12.88;6.75;;;;;;;33.54;39.13;99841.50;1792793;78;21317;-79
2021/07/12 09:14:25;;;;;;;8.58;5.80;;;;;;;33.54;38.15;99842.33;1811941;79;21873;-79
2021/07/12 09:17:34;;;;;;;8.60;6.03;;;;;;;33.51;38.78;99830.86;1812016;78;21305;-79
2021/07/12 09:20:41;;;;;;;11.33;6.17;;;;;;;33.50;39.09;99845.62;1770443;80;21280;-79
2021/07/12 09:23:46;;;;;;;9.35;5.70;;;;;;;33.44;38.12;99837.05;1711528;84;21169;-79
2021/07/12 09:26:55;;;;;;;8.10;5.08;;;;;;;33.45;38.64;99852.05;1741163;82;21290;-79
2021/07/12 09:30:08;;;;;;;8.05;5.70;;;;;;;33.51;37.94;99835.11;1740859;82;21394;-79
2021/07/12 09:33:12;;;;;;;7.65;6.20;;;;;;;33.47;38.00;99836.97;1703909;84;21823;-79
2021/07/12 09:36:24;;;;;;;5.90;4.60;;;;;;;33.26;37.66;99838.26;1735580;82;21845;-79
2021/07/12 09:39:36;;;;;;;6.53;5.15;;;;;;;33.02;39.07;99844.51;1736373;82;21217;-79
2021/07/12 09:42:41;;;;;;;7.17;5.05;;;;;;;33.01;39.66;99842.84;1735894;82;21903;-79
2021/07/12 09:45:47;;;;;;;8.85;5.47;;;;;;;33.19;39.76;99842.22;1734330;82;21867;-79
2021/07/12 09:49:15;;;;;;;7.03;5.42;;;;;;;33.24;38.88;99840.02;1754212;81;21185;-79
2021/07/12 09:52:23;;;;;;;7.75;5.55;;;;;;;33.28;38.94;99836.77;1741572;81;21290;-79
2021/07/12 09:55:41;;;;;;;7.30;5.55;;;;;;;33.27;39.05;99825.19;1740640;81;21311;-79
2021/07/12 09:58:42;;;;;;;14.00;5.28;;;;;;;33.30;39.44;99828.73;1724625;82;21307;-79
2021/07/12 10:02:00;;;;;;;8.38;5.17;;;;;;;33.36;38.05;99823.73;1734676;82;21950;-79
2021/07/12 10:05:19;;;;;;;6.75;5.05;;;;;;;33.41;36.26;99821.30;1801944;78;21288;-79
2021/07/12 10:08:24;;;;;;;9.40;6.33;;;;;;;33.46;37.62;99817.70;1822232;78;21267;-79
2021/07/12 10:11:30;;;;;;;8.98;6.17;;;;;;;33.49;39.69;99826.10;1809449;78;21704;-79
2021/07/12 10:14:35;;;;;;;10.00;7.00;;;;;;;33.41;39.63;99812.20;1809964;78;21303;-79
2021/07/12 10:17:41;;;;;;;6.25;5.45;;;;;;;33.37;39.07;99814.64;1808838;78;21312;-79
2021/07/12 10:20:46;;;;;;;10.60;6.53;;;;;;;33.39;39.36;99812.28;1808571;78;21621;-78
2021/07/12 10:23:52;;;;;;;12.33;5.85;;;;;;;33.35;40.45;99811.30;1811532;78;21315;-79
2021/07/12 10:27:06;;;;;;;7.20;6.33;;;;;;;33.37;40.30;99812.64;1808404;78;21267;-78
2021/07/12 10:30:29;;;;;;;14.38;6.78;;;;;;;33.31;39.15;99802.08;1814714;78;21141;-79
2021/07/12 10:33:39;;;;;;;8.03;5.78;;;;;;;33.26;40.53;99807.91;1808995;78;21716;-79
2021/07/12 10:36:46;;;;;;;8.65;5.70;;;;;;;33.28;40.20;99807.00;1808737;78;21799;-79
2021/07/12 10:40:18;;;;;;;8.43;5.90;;;;;;;33.27;40.51;99796.84;1805524;78;21866;-79
2021/07/12 10:44:00;;;;;;;11.48;6.20;;;;;;;33.26;40.93;99800.00;1737012;80;21891;-79
2021/07/12 10:47:07;;;;;;;8.90;5.37;;;;;;;33.24;40.39;99804.60;1746025;80;21331;-78
2021/07/12 10:50:48;;;;;;;12.37;6.28;;;;;;;33.21;40.30;99806.69;1813952;78;21141;-79
2021/07/12 10:54:20;;;;;;;8.28;5.12;;;;;;;33.25;39.42;99793.51;1816504;79;21287;-79
2021/07/12 10:57:26;;;;;;;9.20;5.28;;;;;;;33.34;38.81;99796.30;1826290;78;21268;-79
2021/07/12 11:00:31;;;;;;;9.78;5.62;;;;;;;33.41;40.08;99790.95;1791484;80;21316;-79
2021/07/12 11:03:44;;;;;;;10.53;6.17;;;;;;;33.46;39.45;99792.79;1750574;80;21268;-79
2021/07/12 11:07:02;;;;;;;7.67;5.75;;;;;;;33.45;39.71;99796.18;1808849;78;21276;-79
2021/07/12 11:10:08;;;;;;;8.75;5.53;;;;;;;33.36;39.49;99789.73;1799285;78;21421;-79
2021/07/12 11:13:16;;;;;;;7.50;5.47;;;;;;;33.26;39.74;99780.99;1803927;78;21145;-79
2021/07/12 11:16:47;;;;;;;12.40;5.58;;;;;;;33.23;40.31;99775.20;1814310;78;21736;-79
2021/07/12 11:19:55;;;;;;;12.78;5.53;;;;;;;33.22;39.27;99779.18;1793582;78;21329;-79
2021/07/12 11:23:01;;;;;;;12.70;5.58;;;;;;;32.94;40.05;99773.98;1806683;78;21260;-78
2021/07/12 11:26:06;;;;;;;7.67;5.78;;;;;;;32.76;39.76;99776.59;1807122;78;21137;-79
2021/07/12 11:29:24;;;;;;;10.00;5.55;;;;;;;32.59;41.09;99775.21;1808151;78;22051;-78
2021/07/12 11:32:29;;;;;;;7.58;5.55;;;;;;;32.49;41.97;99767.91;1794599;78;21870;-79
2021/07/12 11:35:35;;;;;;;13.98;6.85;;;;;;;32.55;42.19;99763.14;1808212;78;21157;-78
2021/07/12 11:38:40;;;;;;;11.43;5.55;;;;;;;32.71;41.65;99765.45;1735226;82;21272;-78
2021/07/12 11:41:47;;;;;;;5.55;4.40;;;;;;;32.80;40.63;99760.01;1752381;81;21170;-79
2021/07/12 11:45:03;;;;;;;8.38;5.62;;;;;;;32.91;40.40;99754.83;1757765;81;21298;-79
2021/07/12 11:48:09;;;;;;;7.67;5.87;;;;;;;33.02;40.51;99762.36;1734259;81;21277;-79
2021/07/12 11:51:22;;;;;;;10.45;6.05;;;;;;;33.11;41.37;99756.07;1727334;82;21149;-79
2021/07/12 11:54:32;;;;;;;10.10;6.17;;;;;;;33.22;41.19;99743.77;1724319;82;21240;-79
2021/07/12 11:57:37;;;;;;;7.78;6.40;;;;;;;33.25;40.60;99754.42;1736449;82;21331;-79
2021/07/12 12:00:45;;;;;;;10.88;6.40;;;;;;;33.19;41.01;99760.88;1761897;81;21772;-78
2021/07/12 12:04:13;;;;;;;8.63;6.17;;;;;;;33.14;41.17;99738.99;1716740;82;21093;-78
2021/07/12 12:07:47;;;;;;;9.55;6.80;;;;;;;33.17;41.76;99743.40;1716507;82;21275;-79
2021/07/12 12:10:54;;;;;;;8.18;5.87;;;;;;;33.15;40.50;99725.06;1719202;82;21268;-79
2021/07/12 12:14:02;;;;;;;10.85;5.97;;;;;;;33.21;39.46;99723.10;1720330;82;21548;-79
2021/07/12 12:17:15;;;;;;;13.70;6.10;;;;;;;33.26;39.79;99714.40;1711289;83;21268;-79
2021/07/12 12:20:24;;;;;;;11.33;5.22;;;;;;;33.44;39.76;99724.25;1696238;84;21243;-80
2021/07/12 12:23:37;;;;;;;8.58;5.35;;;;;;;33.60;39.14;99721.08;1694640;84;21302;-79
2021/07/12 12:26:43;;;;;;;8.18;5.58;;;;;;;33.65;39.07;99717.20;1704232;83;21211;-79
2021/07/12 12:29:49;;;;;;;10.78;5.67;;;;;;;33.67;37.77;99717.09;1696882;83;21308;-80
2021/07/12 12:33:07;;;;;;;10.03;5.87;;;;;;;33.67;38.46;99716.26;1684853;83;22001;-80
2021/07/12 12:36:16;;;;;;;8.65;5.67;;;;;;;33.64;38.85;99714.92;1705017;83;21285;-80
2021/07/12 12:39:27;;;;;;;11.28;5.92;;;;;;;33.60;39.13;99719.66;1695474;84;21184;-80
2021/07/12 12:42:35;;;;;;;10.08;5.97;;;;;;;33.54;39.41;99717.59;1696334;83;21392;-80
2021/07/12 12:45:41;;;;;;;10.43;5.92;;;;;;;33.50;39.60;99718.62;1701639;83;21300;-80
2021/07/12 12:48:50;;;;;;;7.78;5.28;;;;;;;33.47;38.68;99722.98;1709758;83;21303;-80
2021/07/12 12:52:05;;;;;;;5.50;5.00;;;;;;;33.52;37.35;99719.95;1706767;84;21188;-80
2021/07/12 12:55:14;;;;;;;22.73;6.35;;;;;;;33.51;37.36;99707.55;1708675;84;21161;-79
2021/07/12 12:58:19;;;;;;;8.80;5.72;;;;;;;33.41;38.37;99715.01;1699938;83;21816;-80
2021/07/12 13:01:24;;;;;;;11.73;5.72;;;;;;;33.37;36.56;99714.03;1707857;84;21231;-80
2021/07/12 13:04:29;;;;;;;10.10;5.70;;;;;;;33.37;37.61;99706.95;1725623;81;21169;-79
2021/07/12 13:07:38;;;;;;;10.38;5.05;;;;;;;33.32;36.55;99711.63;1714244;83;21317;-80
2021/07/12 13:10:44;;;;;;;11.93;5.60;;;;;;;33.33;36.04;99703.37;1729669;83;21315;-79
2021/07/12 13:13:49;;;;;;;10.75;5.50;;;;;;;33.35;36.35;99702.19;1726772;83;21510;-80
2021/07/12 13:16:55;;;;;;;6.78;5.05;;;;;;;33.38;35.71;99698.68;1726975;83;21320;-80
2021/07/12 13:20:09;;;;;;;9.95;4.85;;;;;;;33.40;36.26;99697.73;1726477;83;21365;-79
2021/07/12 13:23:14;;;;;;;12.37;5.22;;;;;;;33.40;36.59;99694.90;1726464;83;21332;-79
2021/07/12 13:26:20;;;;;;;9.83;5.37;;;;;;;33.40;36.53;99686.40;1727335;83;21338;-79
2021/07/12 13:29:26;;;;;;;10.88;5.25;;;;;;;33.40;36.94;99690.65;1727337;83;21324;-79
2021/07/12 13:32:31;;;;;;;12.35;5.65;;;;;;;33.42;37.04;99688.32;1726979;83;21303;-79
2021/07/12 13:35:38;;;;;;;13.50;6.17;;;;;;;33.40;36.33;99681.55;1727327;83;21303;-80
2021/07/12 13:38:43;;;;;;;11.68;5.17;;;;;;;33.33;37.63;99682.11;1727682;83;21314;-80
2021/07/12 13:41:49;;;;;;;9.15;4.80;;;;;;;33.27;37.41;99684.91;1727274;83;21225;-80
2021/07/12 13:44:54;;;;;;;8.13;5.75;;;;;;;33.19;36.39;99699.95;1727417;83;21242;-80
2021/07/12 13:48:00;;;;;;;11.88;5.35;;;;;;;33.09;36.38;99698.11;1727367;83;21205;-80
2021/07/12 13:51:06;;;;;;;15.10;5.37;;;;;;;33.00;37.47;99696.73;1727544;83;21197;-80
2021/07/12 13:54:13;;;;;;;13.75;4.87;;;;;;;32.95;39.89;99711.09;1726098;83;21315;-80
2021/07/12 13:57:12;;;;;;;8.50;4.72;;;;;;;32.80;40.83;99704.79;1725986;83;21327;-80
2021/07/12 14:00:20;;;;;;;20.32;5.62;;;;;;;32.68;41.82;99701.83;1727070;83;21252;-80
2021/07/12 14:03:26;;;;;;;16.80;6.30;;;;;;;32.59;43.33;99718.01;1726556;83;21328;-80
2021/07/12 14:06:32;;;;;;;17.12;6.55;;;;;;;32.31;43.79;99721.20;1717262;83;21326;-78
2021/07/12 14:09:38;;;;;;;9.60;5.37;;;;;;;31.78;44.86;99722.38;1717238;83;21834;-78
2021/07/12 14:12:43;;;;;;;13.30;5.87;;;;;;;31.32;45.45;99729.21;1716214;83;21374;-78
2021/07/12 14:15:49;;;;;;;19.82;6.40;;;;;;;30.85;46.24;99731.09;1717282;83;21310;-78
2021/07/12 14:18:55;;;;;;;14.18;5.40;;;;;;;30.45;47.13;99743.73;1717041;83;21704;-78
2021/07/12 14:21:59;;;;;;;19.80;6.10;;;;;;;30.00;47.44;99740.88;1717220;83;21822;-78
2021/07/12 14:25:06;;;;;;;15.65;6.70;;;;;;;29.62;48.78;99720.65;1717216;83;21858;-77
2021/07/12 14:28:11;;;;;;;18.23;6.72;;;;;;;29.31;49.17;99728.08;1717236;83;21307;-78
2021/07/12 14:31:17;;;;;;;21.68;7.25;;;;;;;28.99;50.09;99746.78;1717226;83;21834;-78
2021/07/12 14:34:22;;;;;;;13.32;6.62;;;;;;;28.46;52.00;99724.67;1717550;83;21302;-78
2021/07/12 14:37:27;;;;;;;19.50;7.25;;;;;;;28.46;52.00;99724.67;1717849;83;21168;-78